Terminal Aerodrome Forecast
Issued by NWS

Home | Current Version | Previous Version | Text Only | Print | Product List | Glossary On
Versions: 1 2 3 4 5 6 7 8 9 10 11 12 13 14 15 16 17 18 19 20 21
000
FTUS46 KSEW 312320
TAFHQM
TAF
KHQM 312320Z 0100/0124 20012KT 5SM -RA BR SCT015 OVC040
      TEMPO 0100/0104 3SM -RA BR BKN015 OVC030
     FM010400 23008KT P6SM -SHRA BKN020 OVC040
     FM011800 23008KT P6SM VCSH BKN025 BKN050=

USA.gov is the U.S. government's official web portal to all federal, state and local government web resources and services.